Time;durP1;ratioP1;P1;durP2;ratioP2;P2;SDS_P1;SDS_P2;PMS_P1;PMS_P2;Temp;Humidity;BMP_temperature;BMP_pressure;BME280_temperature;BME280_humidity;BME280_pressure;Samples;Min_cycle;Max_cycle;Signal;HPM_P1;HPM_P2
2022/05/15 00:00:46;;;;;;;18.42;5.97;;;13.90;99.90;;;;;;5039883;28;20203;-80
2022/05/15 00:03:15;;;;;;;15.82;6.82;;;13.90;99.90;;;;;;5041133;28;20239;-80
2022/05/15 00:05:43;;;;;;;11.55;5.25;;;13.90;99.90;;;;;;5041045;28;20234;-80
2022/05/15 00:08:11;;;;;;;12.02;6.13;;;13.80;99.90;;;;;;5040902;28;20254;-79
2022/05/15 00:10:41;;;;;;;20.77;7.15;;;13.70;99.90;;;;;;5040469;28;20218;-78
2022/05/15 00:13:09;;;;;;;14.75;6.68;;;13.40;99.90;;;;;;5040574;28;20212;-80
2022/05/15 00:15:37;;;;;;;20.80;7.57;;;13.20;99.90;;;;;;5041962;28;20204;-79
2022/05/15 00:18:04;;;;;;;21.05;7.25;;;13.20;99.90;;;;;;5044316;28;20286;-79
2022/05/15 00:20:31;;;;;;;12.80;6.03;;;13.00;99.90;;;;;;5054204;28;20325;-81
2022/05/15 00:22:58;;;;;;;16.92;6.60;;;12.90;99.90;;;;;;5050436;28;20214;-79
2022/05/15 00:25:25;;;;;;;20.13;6.50;;;12.70;99.90;;;;;;5054989;28;20296;-79
2022/05/15 00:27:54;;;;;;;21.45;6.28;;;12.70;99.90;;;;;;5045008;28;20318;-80
2022/05/15 00:30:22;;;;;;;15.93;6.13;;;12.60;99.90;;;;;;5043954;28;20295;-80
2022/05/15 00:32:49;;;;;;;21.02;6.60;;;12.50;99.90;;;;;;5039891;28;20203;-80
2022/05/15 00:35:16;;;;;;;37.67;15.52;;;12.40;99.90;;;;;;5041707;28;20207;-81
2022/05/15 00:37:43;;;;;;;15.13;8.35;;;12.40;99.90;;;;;;5045598;28;20234;-79
2022/05/15 00:40:12;;;;;;;28.35;7.47;;;12.20;99.90;;;;;;5042622;28;20221;-79
2022/05/15 00:42:38;;;;;;;24.05;6.57;;;12.20;99.90;;;;;;5046419;28;20238;-80
2022/05/15 00:45:09;;;;;;;21.52;6.93;;;12.20;99.90;;;;;;5043393;28;20204;-80
2022/05/15 00:47:36;;;;;;;16.25;7.05;;;12.10;99.90;;;;;;5043495;28;20232;-79
2022/05/15 00:50:05;;;;;;;17.10;6.15;;;12.10;99.90;;;;;;5042690;28;20275;-80
2022/05/15 00:52:36;;;;;;;23.52;7.60;;;12.10;99.90;;;;;;5047091;28;20211;-78
2022/05/15 00:55:07;;;;;;;25.58;7.22;;;12.00;99.90;;;;;;5050791;28;20227;-80
2022/05/15 00:57:40;;;;;;;30.90;9.40;;;12.10;99.90;;;;;;5055623;28;20254;-78
2022/05/15 01:00:12;;;;;;;17.73;6.35;;;12.00;99.90;;;;;;5050362;28;20207;-78
2022/05/15 01:02:44;;;;;;;18.80;6.05;;;12.00;99.90;;;;;;5049821;28;20198;-80
2022/05/15 01:05:13;;;;;;;17.15;7.43;;;12.00;99.90;;;;;;5057608;28;20218;-78
2022/05/15 01:07:39;;;;;;;16.35;7.10;;;11.90;99.90;;;;;;5051597;28;20244;-79
2022/05/15 01:10:08;;;;;;;19.58;7.75;;;11.90;99.90;;;;;;5059401;28;20219;-78
2022/05/15 01:12:37;;;;;;;22.02;8.13;;;11.90;99.90;;;;;;5058699;28;20249;-78
2022/05/15 01:15:04;;;;;;;22.25;9.05;;;12.00;99.90;;;;;;5059499;28;20190;-79
2022/05/15 01:17:33;;;;;;;20.88;8.00;;;11.90;99.90;;;;;;5056376;28;20485;-79
2022/05/15 01:20:05;;;;;;;18.27;9.05;;;11.90;99.90;;;;;;5050098;28;20214;-80
2022/05/15 01:22:33;;;;;;;22.48;8.43;;;11.80;99.90;;;;;;5047782;28;20209;-80
2022/05/15 01:25:01;;;;;;;19.13;8.65;;;11.70;99.90;;;;;;5012831;28;1085244;-79
2022/05/15 01:27:28;;;;;;;16.77;7.75;;;11.70;99.90;;;;;;5060178;28;20297;-78
2022/05/15 01:29:55;;;;;;;31.40;8.73;;;11.70;99.90;;;;;;5056695;28;20213;-80
2022/05/15 01:32:22;;;;;;;18.75;8.27;;;11.60;99.90;;;;;;5053563;28;20217;-78
2022/05/15 01:34:49;;;;;;;21.15;8.45;;;11.60;99.90;;;;;;5069020;28;20221;-79
2022/05/15 01:37:16;;;;;;;27.10;9.73;;;11.60;99.90;;;;;;5059186;28;20221;-78
2022/05/15 01:39:45;;;;;;;17.38;8.15;;;11.50;99.90;;;;;;5058473;28;20195;-78
2022/05/15 01:42:11;;;;;;;17.60;7.55;;;11.50;99.90;;;;;;5062394;28;20177;-78
2022/05/15 01:44:38;;;;;;;24.58;9.75;;;11.50;99.90;;;;;;5064570;28;20207;-78
2022/05/15 01:47:06;;;;;;;19.20;7.82;;;11.40;99.90;;;;;;5057708;28;20253;-79
2022/05/15 01:49:33;;;;;;;20.58;8.93;;;11.40;99.90;;;;;;5063015;28;20262;-77
2022/05/15 01:52:00;;;;;;;21.88;9.35;;;11.40;99.90;;;;;;5056984;28;20200;-79
2022/05/15 01:54:27;;;;;;;15.32;7.20;;;11.30;99.90;;;;;;5057546;28;20189;-77
2022/05/15 01:56:56;;;;;;;19.08;8.13;;;11.20;99.90;;;;;;5064823;28;20296;-78
2022/05/15 01:59:23;;;;;;;19.00;7.40;;;11.30;99.90;;;;;;5066522;28;20233;-80
2022/05/15 02:01:50;;;;;;;15.13;9.07;;;11.20;99.90;;;;;;5061551;28;20264;-79
2022/05/15 02:04:17;;;;;;;20.25;8.80;;;11.20;99.90;;;;;;5049132;28;20204;-78
2022/05/15 02:06:43;;;;;;;17.40;7.78;;;11.20;99.90;;;;;;5050456;28;20319;-78
2022/05/15 02:09:10;;;;;;;31.10;9.90;;;11.10;99.90;;;;;;5060674;28;20217;-79
2022/05/15 02:11:38;;;;;;;27.95;8.95;;;11.10;99.90;;;;;;5052232;28;20269;-78
2022/05/15 02:14:07;;;;;;;21.48;8.18;;;11.10;99.90;;;;;;5056517;28;20216;-78
2022/05/15 02:16:33;;;;;;;20.95;7.95;;;11.00;99.90;;;;;;5044124;28;20636;-79
2022/05/15 02:19:00;;;;;;;17.90;7.53;;;11.10;99.90;;;;;;5057308;28;20239;-79
2022/05/15 02:21:27;;;;;;;25.60;8.98;;;11.00;99.90;;;;;;5055465;28;20261;-79
2022/05/15 02:23:54;;;;;;;23.30;9.18;;;11.00;99.90;;;;;;5050178;28;20208;-79
2022/05/15 02:26:21;;;;;;;23.05;8.10;;;10.90;99.90;;;;;;5034184;28;20251;-78
2022/05/15 02:28:48;;;;;;;24.27;9.35;;;10.90;99.90;;;;;;5047405;28;20209;-79
2022/05/15 02:31:16;;;;;;;19.45;8.55;;;10.90;99.90;;;;;;5044164;28;20276;-79
2022/05/15 02:33:43;;;;;;;19.88;8.02;;;11.00;99.90;;;;;;5048816;28;20200;-80
2022/05/15 02:36:11;;;;;;;26.33;8.73;;;10.90;99.90;;;;;;5044210;28;20202;-79
2022/05/15 02:38:38;;;;;;;14.90;7.85;;;10.80;99.90;;;;;;5059088;28;20188;-79
2022/05/15 02:41:05;;;;;;;21.17;8.70;;;10.80;99.90;;;;;;5056803;28;20199;-78
2022/05/15 02:43:32;;;;;;;23.38;11.18;;;10.80;99.90;;;;;;5050747;28;20190;-77
2022/05/15 02:46:00;;;;;;;24.58;9.43;;;10.70;99.90;;;;;;5060974;28;20283;-78
2022/05/15 02:51:13;;;;;;;22.92;8.60;;;10.80;99.90;;;;;;5067741;28;20219;-78
2022/05/15 02:53:42;;;;;;;24.10;8.85;;;10.70;99.90;;;;;;5058068;28;20189;-77
2022/05/15 02:56:12;;;;;;;30.63;10.77;;;10.80;99.90;;;;;;5063146;28;20189;-78
2022/05/15 02:58:39;;;;;;;22.38;11.43;;;10.80;99.90;;;;;;5060923;28;20197;-78
2022/05/15 03:01:06;;;;;;;26.35;10.52;;;10.80;99.90;;;;;;5065169;28;20247;-77
2022/05/15 03:03:34;;;;;;;27.90;12.18;;;10.80;99.90;;;;;;5057816;28;20228;-78
2022/05/15 03:06:01;;;;;;;17.38;9.85;;;10.80;99.90;;;;;;5057353;28;20320;-77
2022/05/15 03:08:28;;;;;;;20.45;9.77;;;10.80;99.90;;;;;;5057905;28;20228;-78
2022/05/15 03:10:55;;;;;;;20.40;10.77;;;10.80;99.90;;;;;;5050694;28;20223;-78
2022/05/15 03:13:22;;;;;;;18.20;9.75;;;10.80;99.90;;;;;;5061206;28;20204;-78
2022/05/15 03:15:49;;;;;;;34.88;10.77;;;10.80;99.90;;;;;;5068466;28;20210;-79
2022/05/15 03:18:16;;;;;;;24.67;9.68;;;10.80;99.90;;;;;;5056879;28;20221;-78
2022/05/15 03:20:44;;;;;;;24.90;10.77;;;10.80;99.90;;;;;;5054917;28;20197;-79
2022/05/15 03:23:11;;;;;;;23.92;10.65;;;10.80;99.90;;;;;;5056761;28;20303;-79
2022/05/15 03:25:38;;;;;;;23.25;11.45;;;10.80;99.90;;;;;;5061960;28;20226;-78
2022/05/15 03:28:09;;;;;;;22.98;9.80;;;10.80;99.90;;;;;;5062671;28;20236;-79
2022/05/15 03:30:36;;;;;;;21.73;11.38;;;10.80;99.90;;;;;;5061549;28;20201;-79
2022/05/15 03:33:03;;;;;;;27.42;11.60;;;10.70;99.90;;;;;;5055144;28;20370;-80
2022/05/15 03:35:30;;;;;;;22.55;9.27;;;10.70;99.90;;;;;;5051555;28;20219;-78
2022/05/15 03:37:58;;;;;;;23.52;7.85;;;10.70;99.90;;;;;;5059807;28;20243;-79
2022/05/15 03:40:25;;;;;;;22.25;10.60;;;10.80;99.90;;;;;;5050276;28;20232;-79
2022/05/15 03:42:52;;;;;;;16.63;9.50;;;10.80;99.90;;;;;;5050259;28;20225;-79
2022/05/15 03:45:19;;;;;;;24.00;9.18;;;10.90;99.90;;;;;;5049628;28;20236;-79
2022/05/15 03:47:47;;;;;;;19.77;9.35;;;10.90;99.90;;;;;;5049535;28;20320;-78
2022/05/15 03:50:14;;;;;;;26.90;10.40;;;10.90;99.90;;;;;;5048581;28;20223;-79
2022/05/15 03:52:41;;;;;;;22.58;9.88;;;10.90;99.90;;;;;;5049354;28;20208;-79
2022/05/15 03:55:11;;;;;;;15.85;8.48;;;10.90;99.90;;;;;;5041071;28;20200;-80
2022/05/15 03:57:38;;;;;;;28.13;12.63;;;11.00;99.90;;;;;;5047468;28;20303;-80
2022/05/15 04:00:08;;;;;;;17.73;9.23;;;11.00;99.90;;;;;;5041400;28;20684;-80
2022/05/15 04:02:35;;;;;;;26.13;9.13;;;11.10;99.90;;;;;;5050332;28;20242;-77
2022/05/15 04:05:02;;;;;;;17.92;8.95;;;11.10;99.90;;;;;;5042538;28;20229;-78
2022/05/15 04:07:29;;;;;;;22.65;10.18;;;11.20;99.90;;;;;;5045679;28;20275;-78
2022/05/15 04:09:56;;;;;;;19.05;9.75;;;11.20;99.90;;;;;;5057987;28;20211;-78
2022/05/15 04:12:24;;;;;;;26.42;9.93;;;11.20;99.90;;;;;;5054915;28;20227;-78
2022/05/15 04:14:51;;;;;;;18.85;10.18;;;11.30;99.90;;;;;;5055007;28;20212;-79
2022/05/15 04:17:18;;;;;;;24.20;11.23;;;11.30;99.90;;;;;;5054592;28;20281;-79
2022/05/15 04:19:44;;;;;;;22.00;8.63;;;11.40;99.90;;;;;;5045129;28;20225;-79
2022/05/15 04:22:12;;;;;;;20.77;10.70;;;11.40;99.90;;;;;;5043121;28;20281;-80
2022/05/15 04:24:39;;;;;;;23.92;9.63;;;11.60;99.90;;;;;;5040576;28;20237;-79
2022/05/15 04:27:06;;;;;;;32.65;11.93;;;11.70;99.90;;;;;;5042211;28;20294;-79
2022/05/15 04:29:34;;;;;;;23.08;9.82;;;11.90;99.90;;;;;;5040062;28;20207;-79
2022/05/15 04:32:01;;;;;;;17.90;9.35;;;12.50;99.90;;;;;;5040122;28;20214;-80
2022/05/15 04:34:29;;;;;;;19.13;8.30;;;13.20;99.90;;;;;;5041502;28;20204;-79
2022/05/15 04:36:56;;;;;;;15.38;8.65;;;14.20;99.90;;;;;;5048322;28;20251;-79
2022/05/15 04:39:23;;;;;;;19.80;9.02;;;14.90;99.90;;;;;;5041246;28;20268;-79
2022/05/15 04:41:50;;;;;;;18.48;9.93;;;15.90;99.90;;;;;;5041140;28;20217;-79
2022/05/15 04:44:17;;;;;;;19.00;8.68;;;16.50;99.90;;;;;;5049252;28;20281;-79
2022/05/15 04:46:45;;;;;;;15.57;9.30;;;17.00;99.90;;;;;;5040643;28;20258;-79
2022/05/15 04:49:12;;;;;;;14.43;7.97;;;17.40;99.90;;;;;;5045718;28;20215;-79
2022/05/15 04:51:39;;;;;;;17.83;9.20;;;18.20;99.90;;;;;;5048826;28;20780;-79
2022/05/15 04:54:06;;;;;;;13.30;7.53;;;18.60;99.90;;;;;;5039503;28;20509;-79
2022/05/15 04:56:33;;;;;;;18.90;7.97;;;18.80;99.90;;;;;;5038554;28;20550;-79
2022/05/15 04:59:00;;;;;;;22.23;9.80;;;19.50;99.90;;;;;;5039379;28;20480;-80
2022/05/15 05:01:27;;;;;;;13.60;6.80;;;20.10;97.30;;;;;;5039215;28;20442;-80
2022/05/15 05:03:57;;;;;;;12.43;6.57;;;20.80;96.70;;;;;;5040301;28;20864;-80
2022/05/15 05:06:25;;;;;;;14.00;8.27;;;21.50;94.50;;;;;;5041672;28;20562;-80
2022/05/15 05:08:52;;;;;;;17.40;7.97;;;22.30;92.00;;;;;;5040178;28;20447;-80
2022/05/15 05:11:20;;;;;;;16.80;7.50;;;22.80;90.70;;;;;;5042085;28;20455;-80
2022/05/15 05:13:47;;;;;;;14.30;6.37;;;23.30;88.50;;;;;;5042599;28;20477;-80
2022/05/15 05:16:14;;;;;;;10.13;6.67;;;23.60;87.40;;;;;;5039470;28;20836;-80
2022/05/15 05:18:42;;;;;;;13.60;6.70;;;23.60;86.40;;;;;;5039819;28;20793;-80
2022/05/15 05:21:10;;;;;;;20.73;9.07;;;23.80;85.10;;;;;;5038815;28;20530;-80
2022/05/15 05:23:37;;;;;;;19.23;8.50;;;23.80;84.70;;;;;;5040707;28;20518;-80
2022/05/15 05:26:04;;;;;;;15.67;6.50;;;23.80;84.00;;;;;;5043412;28;20545;-80
2022/05/15 05:28:31;;;;;;;23.87;7.43;;;24.10;84.00;;;;;;5043348;28;20493;-80
2022/05/15 05:30:59;;;;;;;18.43;8.50;;;24.30;82.70;;;;;;5046948;28;20478;-80
2022/05/15 05:33:27;;;;;;;20.00;8.27;;;24.30;82.40;;;;;;5042862;28;20519;-80
2022/05/15 05:35:54;;;;;;;16.97;7.70;;;24.60;81.90;;;;;;5043078;28;20486;-80
2022/05/15 05:38:22;;;;;;;19.97;7.50;;;24.70;81.40;;;;;;5045834;28;20842;-80
2022/05/15 05:40:49;;;;;;;10.87;7.03;;;25.10;80.40;;;;;;5048022;28;20656;-79
2022/05/15 05:43:16;;;;;;;22.57;8.90;;;25.30;79.40;;;;;;5051749;28;20441;-79
2022/05/15 05:45:43;;;;;;;13.70;7.10;;;25.10;78.20;;;;;;5060682;28;20868;-79
2022/05/15 05:48:10;;;;;;;12.87;7.50;;;25.30;78.70;;;;;;5050226;28;20562;-79
2022/05/15 05:50:37;;;;;;;16.67;7.90;;;25.30;79.40;;;;;;5047625;28;20544;-79
2022/05/15 05:53:04;;;;;;;15.27;6.77;;;25.50;78.40;;;;;;5043794;28;20506;-80
2022/05/15 05:55:32;;;;;;;15.97;7.57;;;25.40;77.90;;;;;;5047869;28;20459;-80
2022/05/15 05:57:59;;;;;;;14.53;6.80;;;25.50;78.10;;;;;;5050468;28;20451;-79
2022/05/15 06:00:28;;;;;;;17.17;7.20;;;25.50;77.20;;;;;;5059553;28;20433;-78
2022/05/15 06:04:39;;;;;;;14.23;7.07;;;25.60;76.70;;;;;;5058594;28;20451;-79
2022/05/15 06:05:43;;;;;;;15.27;6.97;;;26.00;76.00;;;;;;5058529;28;20435;-79
2022/05/15 06:08:10;;;;;;;15.23;6.90;;;26.30;75.00;;;;;;5065979;28;20506;-79
2022/05/15 06:10:39;;;;;;;13.13;7.27;;;26.60;74.40;;;;;;5058543;28;20448;-79
2022/05/15 06:13:06;;;;;;;15.33;8.00;;;26.80;73.30;;;;;;5058988;28;20458;-79
2022/05/15 06:15:33;;;;;;;12.40;6.70;;;26.90;73.40;;;;;;5058965;28;20449;-79
2022/05/15 06:18:01;;;;;;;12.70;6.60;;;26.90;72.70;;;;;;5058231;28;20527;-80
2022/05/15 06:20:28;;;;;;;13.10;6.40;;;27.40;72.10;;;;;;5058419;28;20494;-80
2022/05/15 06:22:55;;;;;;;11.70;6.33;;;28.30;70.30;;;;;;5066610;28;20503;-80
2022/05/15 06:25:22;;;;;;;10.70;6.60;;;28.40;68.70;;;;;;5058040;28;20546;-79
2022/05/15 06:27:51;;;;;;;12.17;6.37;;;28.30;69.00;;;;;;5050931;28;20505;-80
2022/05/15 06:30:18;;;;;;;14.30;6.63;;;27.80;68.80;;;;;;5050711;28;20481;-79
2022/05/15 06:32:45;;;;;;;17.37;7.60;;;27.50;70.10;;;;;;5044876;28;20511;-79
2022/05/15 06:35:14;;;;;;;10.17;6.53;;;27.90;69.60;;;;;;5042369;28;20526;-78
2022/05/15 06:37:42;;;;;;;16.70;6.77;;;28.50;68.10;;;;;;5043122;28;21024;-80
2022/05/15 06:40:11;;;;;;;13.53;5.93;;;28.10;68.20;;;;;;5043260;28;20510;-80
2022/05/15 06:42:38;;;;;;;12.30;6.30;;;28.60;67.50;;;;;;5044432;28;20504;-80
2022/05/15 06:45:08;;;;;;;12.63;6.87;;;28.80;66.10;;;;;;5046362;28;20447;-79
2022/05/15 06:47:35;;;;;;;14.23;6.43;;;28.40;66.40;;;;;;5049442;28;20502;-80
2022/05/15 06:50:03;;;;;;;10.77;5.60;;;28.30;66.50;;;;;;5048339;28;20478;-78
2022/05/15 06:52:30;;;;;;;11.60;6.63;;;28.70;65.30;;;;;;5049384;28;20454;-79
2022/05/15 06:54:56;;;;;;;14.43;6.33;;;28.70;64.10;;;;;;5052975;28;20458;-78
2022/05/15 06:57:28;;;;;;;11.90;6.83;;;28.10;65.20;;;;;;5052999;28;20521;-79
2022/05/15 06:59:56;;;;;;;13.80;6.10;;;28.80;64.70;;;;;;5051502;28;20462;-79
2022/05/15 07:02:25;;;;;;;15.37;6.27;;;28.60;64.40;;;;;;5047054;28;20453;-79
2022/05/15 07:04:52;;;;;;;14.60;6.17;;;29.10;63.50;;;;;;5049856;28;20450;-80
2022/05/15 07:07:20;;;;;;;10.10;5.60;;;29.60;62.20;;;;;;5042229;28;20896;-80
2022/05/15 07:09:47;;;;;;;13.30;5.70;;;30.20;61.20;;;;;;5040802;28;21569;-80
2022/05/15 07:12:14;;;;;;;13.27;5.90;;;29.90;60.40;;;;;;5047655;28;20511;-79
2022/05/15 07:14:41;;;;;;;13.83;6.30;;;30.00;60.60;;;;;;5050185;28;20460;-80
2022/05/15 07:17:08;;;;;;;13.43;5.63;;;29.80;60.20;;;;;;5043774;28;20582;-81
2022/05/15 07:19:37;;;;;;;8.80;5.40;;;30.10;59.60;;;;;;5041308;28;20804;-80
2022/05/15 07:22:04;;;;;;;11.43;5.67;;;30.50;59.80;;;;;;5041674;28;20521;-80
2022/05/15 07:24:31;;;;;;;10.07;5.10;;;30.60;58.30;;;;;;5047064;28;20896;-81
2022/05/15 07:26:58;;;;;;;12.60;5.67;;;30.40;58.10;;;;;;5047443;28;20490;-79
2022/05/15 07:29:25;;;;;;;10.40;4.90;;;30.20;57.80;;;;;;5043839;28;20506;-80
2022/05/15 07:31:53;;;;;;;12.30;5.00;;;29.70;58.60;;;;;;5050964;28;20439;-81
2022/05/15 07:34:21;;;;;;;8.60;3.60;;;30.40;58.00;;;;;;5052462;28;20838;-80
2022/05/15 07:36:52;;;;;;;11.20;4.20;;;30.90;56.90;;;;;;5032199;28;20506;-80
2022/05/15 07:39:20;;;;;;;11.50;4.90;;;31.40;56.00;;;;;;5041647;28;20479;-81
2022/05/15 07:41:48;;;;;;;10.80;4.27;;;31.70;55.20;;;;;;5042053;28;20443;-80
2022/05/15 07:44:15;;;;;;;9.30;4.80;;;32.40;54.70;;;;;;5040294;28;20454;-80
2022/05/15 07:46:42;;;;;;;8.70;4.50;;;32.30;53.90;;;;;;5044116;28;20471;-79
2022/05/15 07:49:09;;;;;;;12.50;4.60;;;32.10;53.70;;;;;;5043852;28;20493;-79
2022/05/15 07:51:41;;;;;;;11.97;5.57;;;31.60;54.50;;;;;;5035184;28;20501;-81
2022/05/15 07:54:09;;;;;;;8.87;4.40;;;31.10;54.50;;;;;;5040488;28;20953;-80
2022/05/15 07:56:36;;;;;;;9.10;5.30;;;31.20;55.40;;;;;;5040711;28;20979;-80
2022/05/15 07:59:03;;;;;;;11.60;4.57;;;30.80;54.80;;;;;;5049242;28;20814;-80
2022/05/15 08:01:30;;;;;;;6.70;4.17;;;31.00;55.70;;;;;;5052645;28;20533;-80
2022/05/15 08:03:57;;;;;;;11.50;4.77;;;31.40;54.70;;;;;;5051495;28;20438;-80
2022/05/15 08:09:10;;;;;;;15.43;5.83;;;31.50;53.70;;;;;;5039877;28;20486;-79
2022/05/15 08:11:37;;;;;;;8.03;3.77;;;31.10;54.10;;;;;;5043142;28;21011;-80
2022/05/15 08:14:05;;;;;;;9.80;3.83;;;31.70;53.00;;;;;;5040932;28;20447;-80
2022/05/15 08:16:35;;;;;;;9.80;4.07;;;32.30;52.00;;;;;;5043807;28;20470;-80
2022/05/15 08:24:32;;;;;;;8.03;3.47;;;31.10;53.00;;;;;;5052152;28;20457;-80
2022/05/15 08:26:59;;;;;;;11.40;5.17;;;31.40;53.00;;;;;;5064523;28;20569;-79
2022/05/15 08:29:26;;;;;;;8.73;3.40;;;32.20;51.60;;;;;;5051368;28;20546;-79
2022/05/15 08:31:53;;;;;;;11.83;4.20;;;32.50;51.30;;;;;;5049103;28;20455;-80
2022/05/15 08:34:20;;;;;;;7.20;3.40;;;32.40;50.30;;;;;;5059673;28;20443;-79
2022/05/15 08:36:47;;;;;;;7.90;4.40;;;33.10;50.80;;;;;;5054365;28;20455;-79
2022/05/15 08:39:15;;;;;;;10.63;3.90;;;32.30;50.50;;;;;;5065787;28;20474;-80
2022/05/15 08:41:47;;;;;;;7.80;3.90;;;31.70;51.00;;;;;;5053031;28;20443;-80
2022/05/15 08:44:18;;;;;;;9.50;3.80;;;32.00;51.40;;;;;;5052974;28;20434;-79
2022/05/15 08:47:17;;;;;;;7.43;3.20;;;31.90;50.40;;;;;;5052932;28;20463;-79
2022/05/15 08:49:47;;;;;;;7.47;3.10;;;32.80;49.50;;;;;;5043261;28;20462;-81
2022/05/15 08:52:17;;;;;;;7.93;3.80;;;32.00;49.10;;;;;;5055460;28;20446;-80
2022/05/15 08:54:54;;;;;;;9.03;3.87;;;31.30;49.70;;;;;;5061603;28;20466;-80
2022/05/15 08:57:44;;;;;;;9.03;3.00;;;30.90;50.40;;;;;;5055272;28;20466;-79
2022/05/15 09:00:16;;;;;;;8.60;3.77;;;30.70;50.40;;;;;;5069204;28;20456;-80
2022/05/15 09:02:44;;;;;;;9.57;3.70;;;31.30;50.20;;;;;;5059134;28;20435;-80
2022/05/15 09:05:13;;;;;;;5.30;2.43;;;32.50;49.20;;;;;;5053997;28;20468;-78
2022/05/15 09:07:53;;;;;;;11.77;4.07;;;32.60;48.40;;;;;;5054988;28;20466;-80
2022/05/15 09:10:27;;;;;;;8.73;4.00;;;32.50;48.60;;;;;;5056166;28;20446;-80
2022/05/15 09:13:04;;;;;;;9.10;3.40;;;31.70;48.40;;;;;;5058692;28;20471;-80
2022/05/15 09:15:32;;;;;;;5.57;3.43;;;31.40;49.90;;;;;;5049542;28;20435;-79
2022/05/15 09:18:03;;;;;;;5.77;2.90;;;31.10;49.80;;;;;;5058636;28;20486;-80
2022/05/15 09:20:43;;;;;;;9.03;2.73;;;30.50;48.70;;;;;;5056224;28;20458;-80
2022/05/15 09:23:24;;;;;;;7.73;2.67;;;30.30;49.00;;;;;;5055314;28;20481;-79
2022/05/15 09:25:54;;;;;;;4.80;2.33;;;30.20;50.10;;;;;;5053832;28;20466;-80
2022/05/15 09:28:26;;;;;;;7.77;2.60;;;30.90;47.70;;;;;;5048628;28;20538;-80
2022/05/15 09:30:55;;;;;;;5.80;2.60;;;31.40;46.70;;;;;;5049087;28;20450;-80
2022/05/15 09:33:30;;;;;;;7.13;2.07;;;30.90;47.20;;;;;;5056519;28;20435;-81
2022/05/15 09:36:21;;;;;;;5.13;2.43;;;30.20;48.20;;;;;;5057411;28;20509;-81
2022/05/15 09:38:48;;;;;;;7.00;2.80;;;30.50;47.60;;;;;;5057747;28;20489;-80
2022/05/15 09:44:11;;;;;;;8.20;3.33;;;29.60;48.20;;;;;;5037652;28;20428;-80
2022/05/15 09:46:40;;;;;;;8.37;3.70;;;29.60;48.20;;;;;;5050799;28;20472;-80
2022/05/15 09:49:15;;;;;;;10.60;3.37;;;29.30;49.20;;;;;;5045535;28;20508;-80
2022/05/15 09:51:47;;;;;;;7.30;2.80;;;28.90;50.60;;;;;;5055071;28;20994;-79
2022/05/15 09:54:30;;;;;;;11.20;4.60;;;28.10;49.30;;;;;;5051180;28;20447;-80
2022/05/15 09:57:10;;;;;;;6.43;3.27;;;28.30;51.30;;;;;;5049878;28;20463;-82
2022/05/15 09:59:38;;;;;;;8.63;3.50;;;28.20;50.40;;;;;;5051362;28;20466;-80
2022/05/15 10:02:06;;;;;;;4.77;2.20;;;28.20;50.20;;;;;;5051207;28;20453;-80
2022/05/15 10:04:39;;;;;;;5.43;2.43;;;28.40;50.60;;;;;;5048730;28;20473;-79
2022/05/15 10:07:09;;;;;;;5.10;3.00;;;27.90;50.20;;;;;;5051703;28;21053;-81
2022/05/15 10:09:38;;;;;;;6.53;3.20;;;27.60;51.20;;;;;;5045986;28;20449;-79
2022/05/15 10:12:11;;;;;;;5.43;2.90;;;27.70;51.30;;;;;;5053581;28;20447;-80
2022/05/15 10:14:43;;;;;;;7.13;3.50;;;27.90;51.80;;;;;;5048285;28;20447;-80
2022/05/15 10:17:12;;;;;;;7.00;2.73;;;28.60;51.40;;;;;;5044683;28;20542;-81
2022/05/15 10:19:43;;;;;;;5.90;2.90;;;28.30;51.50;;;;;;5047714;28;20486;-80
2022/05/15 10:22:25;;;;;;;8.27;3.70;;;28.10;52.00;;;;;;5047024;28;20457;-82
2022/05/15 10:24:53;;;;;;;8.20;3.40;;;28.00;52.10;;;;;;5053576;28;20451;-81
2022/05/15 10:27:24;;;;;;;64.80;43.77;;;27.60;51.70;;;;;;5046646;28;20478;-81
2022/05/15 10:29:58;;;;;;;8.10;4.47;;;27.60;52.90;;;;;;5063370;28;20473;-80
2022/05/15 10:32:32;;;;;;;5.57;4.00;;;27.80;52.10;;;;;;5050451;28;20599;-83
2022/05/15 10:34:59;;;;;;;6.70;3.50;;;27.90;50.80;;;;;;5053194;28;20483;-83
2022/05/15 10:37:45;;;;;;;6.13;2.50;;;27.50;51.00;;;;;;5047690;28;20490;-82
2022/05/15 10:40:28;;;;;;;5.37;4.20;;;27.00;51.80;;;;;;5052498;28;20547;-82
2022/05/15 10:43:20;;;;;;;6.70;3.40;;;26.50;52.90;;;;;;5052862;28;20447;-82
2022/05/15 10:45:54;;;;;;;5.90;2.63;;;26.00;54.70;;;;;;5041596;28;20451;-83
2022/05/15 10:48:46;;;;;;;5.23;3.23;;;25.80;54.70;;;;;;5041189;28;20536;-83
2022/05/15 10:51:18;;;;;;;6.97;3.00;;;25.60;55.60;;;;;;5042407;28;20455;-81
2022/05/15 10:59:47;;;;;;;5.93;2.57;;;25.10;55.10;;;;;;5040576;28;20496;-80
2022/05/15 11:02:48;;;;;;;5.40;2.33;;;24.80;56.60;;;;;;5046646;28;20447;-81
2022/05/15 11:05:24;;;;;;;9.20;3.77;;;24.70;55.70;;;;;;5053034;28;20473;-79
2022/05/15 11:08:00;;;;;;;8.00;2.70;;;24.40;56.70;;;;;;5046690;28;20610;-81
2022/05/15 11:10:36;;;;;;;8.50;2.93;;;24.30;57.70;;;;;;5046753;28;20451;-81
2022/05/15 11:13:11;;;;;;;5.83;2.70;;;24.00;58.30;;;;;;5059532;28;20653;-80
2022/05/15 11:15:47;;;;;;;8.23;3.50;;;23.90;58.10;;;;;;5068355;28;20479;-80
2022/05/15 11:18:43;;;;;;;7.27;2.60;;;23.80;58.10;;;;;;5052695;28;20824;-80
2022/05/15 11:21:14;;;;;;;5.23;2.37;;;23.80;58.20;;;;;;5058599;28;20447;-80
2022/05/15 11:23:46;;;;;;;6.93;2.63;;;24.00;58.40;;;;;;5047217;28;20853;-82
2022/05/15 11:26:20;;;;;;;6.10;2.00;;;23.90;57.00;;;;;;5046810;28;20489;-79
2022/05/15 11:28:51;;;;;;;7.33;2.50;;;23.90;57.80;;;;;;5044247;28;20499;-81
2022/05/15 11:31:21;;;;;;;3.40;2.20;;;23.90;56.70;;;;;;5047771;28;20438;-81
2022/05/15 11:33:52;;;;;;;4.13;2.30;;;23.80;56.30;;;;;;5046480;28;20512;-79
2022/05/15 11:36:35;;;;;;;4.60;2.50;;;23.60;57.50;;;;;;5054097;28;20478;-80
2022/05/15 11:39:06;;;;;;;7.50;2.63;;;23.30;58.10;;;;;;5033722;28;20479;-81
2022/05/15 11:41:41;;;;;;;6.90;2.80;;;23.30;58.90;;;;;;5043936;28;20516;-80
2022/05/15 11:44:12;;;;;;;8.07;2.70;;;23.30;58.70;;;;;;5046206;28;20635;-81
2022/05/15 11:47:05;;;;;;;4.17;2.17;;;23.30;59.10;;;;;;5039012;28;20474;-81
2022/05/15 11:49:38;;;;;;;5.00;2.40;;;23.50;58.90;;;;;;5057528;28;20473;-81
2022/05/15 11:52:35;;;;;;;5.73;2.53;;;23.50;59.00;;;;;;5043560;28;20481;-82
2022/05/15 11:55:41;;;;;;;5.77;2.27;;;23.50;59.50;;;;;;5040838;28;20443;-82
2022/05/15 11:58:31;;;;;;;8.37;3.33;;;23.20;60.30;;;;;;5047231;28;20935;-81
2022/05/15 12:01:08;;;;;;;13.40;3.50;;;23.30;60.60;;;;;;5031836;28;20814;-81
2022/05/15 12:03:51;;;;;;;4.00;2.40;;;23.50;60.10;;;;;;5041624;28;20451;-81
2022/05/15 12:06:22;;;;;;;4.77;2.03;;;23.50;59.30;;;;;;5035159;28;20443;-82
2022/05/15 12:08:53;;;;;;;4.93;1.93;;;23.40;59.80;;;;;;5042460;28;20443;-81
2022/05/15 12:11:34;;;;;;;5.40;2.57;;;23.30;60.00;;;;;;5051128;28;20861;-81
2022/05/15 12:14:35;;;;;;;8.00;2.70;;;23.20;60.00;;;;;;5045686;28;20530;-81
2022/05/15 12:17:16;;;;;;;7.03;3.07;;;23.10;59.70;;;;;;5044256;28;20479;-81
2022/05/15 12:19:46;;;;;;;9.10;3.40;;;23.20;59.80;;;;;;5048745;28;20475;-81
2022/05/15 12:22:15;;;;;;;4.67;2.40;;;23.50;60.20;;;;;;5044309;28;20517;-81
2022/05/15 12:24:47;;;;;;;5.70;2.43;;;23.40;59.20;;;;;;5048674;28;20790;-81
2022/05/15 12:27:22;;;;;;;3.73;2.20;;;23.50;60.10;;;;;;5042934;28;20459;-81
2022/05/15 12:29:59;;;;;;;3.20;2.10;;;23.60;59.10;;;;;;5042023;28;20462;-81
2022/05/15 12:32:32;;;;;;;5.23;2.50;;;23.50;58.30;;;;;;5045192;28;20465;-80
2022/05/15 12:35:00;;;;;;;5.10;2.00;;;23.30;58.00;;;;;;5052619;28;20477;-82
2022/05/15 12:37:30;;;;;;;4.97;2.40;;;23.30;58.40;;;;;;5045433;28;20500;-81
2022/05/15 12:40:00;;;;;;;3.53;1.70;;;23.30;58.70;;;;;;5048663;28;20533;-80
2022/05/15 12:42:37;;;;;;;11.33;2.17;;;23.30;58.60;;;;;;5046671;28;20501;-82
2022/05/15 12:45:08;;;;;;;3.60;1.90;;;23.20;58.60;;;;;;5056382;28;20449;-80
2022/05/15 12:47:36;;;;;;;5.97;2.50;;;23.30;58.70;;;;;;5048845;28;20836;-81
2022/05/15 12:50:14;;;;;;;5.30;2.10;;;23.30;58.10;;;;;;5053621;28;20455;-80
2022/05/15 12:52:41;;;;;;;8.43;2.90;;;23.20;58.60;;;;;;5047396;28;20545;-80
2022/05/15 12:55:11;;;;;;;3.73;1.70;;;23.10;58.20;;;;;;5044815;28;20482;-80
2022/05/15 12:57:48;;;;;;;5.40;1.93;;;23.10;58.10;;;;;;5046126;28;20498;-80
2022/05/15 13:00:18;;;;;;;7.90;3.00;;;23.20;58.20;;;;;;5051550;28;20971;-79
2022/05/15 13:02:45;;;;;;;4.13;2.77;;;23.20;58.40;;;;;;5047990;28;20470;-81
2022/05/15 13:05:21;;;;;;;3.47;2.03;;;23.10;58.50;;;;;;5049262;28;20521;-80
2022/05/15 13:07:54;;;;;;;4.13;2.03;;;23.10;57.80;;;;;;5052746;28;20546;-79
2022/05/15 13:10:22;;;;;;;4.90;2.30;;;23.20;58.40;;;;;;5045640;28;20538;-82
2022/05/15 13:12:54;;;;;;;9.03;2.43;;;23.20;58.10;;;;;;5046688;28;20473;-82
2022/05/15 13:15:24;;;;;;;4.53;2.43;;;23.00;58.50;;;;;;5046576;28;20534;-80